sensor_id;sensor_type;location;lat;lon;timestamp;temperature;humidity
64226;DHT22;50545;56.064;26.178;2022-12-07T00:01:28;-2.70;99.90
64226;DHT22;50545;56.064;26.178;2022-12-07T00:03:57;-2.70;99.90
64226;DHT22;50545;56.064;26.178;2022-12-07T00:06:27;-2.70;99.90
64226;DHT22;50545;56.064;26.178;2022-12-07T00:08:54;-2.70;99.90
64226;DHT22;50545;56.064;26.178;2022-12-07T00:11:22;-2.70;99.90
64226;DHT22;50545;56.064;26.178;2022-12-07T00:13:55;-2.70;99.90
64226;DHT22;50545;56.064;26.178;2022-12-07T00:16:25;-2.70;99.90
64226;DHT22;50545;56.064;26.178;2022-12-07T00:18:53;-2.70;99.90
64226;DHT22;50545;56.064;26.178;2022-12-07T00:21:31;-2.70;99.90
64226;DHT22;50545;56.064;26.178;2022-12-07T00:24:00;-2.70;99.90
64226;DHT22;50545;56.064;26.178;2022-12-07T00:26:35;-2.70;99.90
64226;DHT22;50545;56.064;26.178;2022-12-07T00:29:11;-2.70;99.90
64226;DHT22;50545;56.064;26.178;2022-12-07T00:31:39;-2.70;99.90
64226;DHT22;50545;56.064;26.178;2022-12-07T00:34:10;-2.70;99.90
64226;DHT22;50545;56.064;26.178;2022-12-07T00:36:38;-2.70;99.90
64226;DHT22;50545;56.064;26.178;2022-12-07T00:39:05;-2.70;99.90
64226;DHT22;50545;56.064;26.178;2022-12-07T00:41:32;-2.70;99.90
64226;DHT22;50545;56.064;26.178;2022-12-07T00:44:00;-2.70;99.90
64226;DHT22;50545;56.064;26.178;2022-12-07T00:46:27;-2.70;99.90
64226;DHT22;50545;56.064;26.178;2022-12-07T00:48:54;-2.70;99.90
64226;DHT22;50545;56.064;26.178;2022-12-07T00:51:24;-2.70;99.90
64226;DHT22;50545;56.064;26.178;2022-12-07T00:53:52;-2.70;99.90
64226;DHT22;50545;56.064;26.178;2022-12-07T00:56:24;-2.70;99.90
64226;DHT22;50545;56.064;26.178;2022-12-07T00:58:56;-2.70;99.90
64226;DHT22;50545;56.064;26.178;2022-12-07T01:01:26;-2.70;99.90
64226;DHT22;50545;56.064;26.178;2022-12-07T01:03:53;-2.70;99.90
64226;DHT22;50545;56.064;26.178;2022-12-07T01:06:23;-2.70;99.90
64226;DHT22;50545;56.064;26.178;2022-12-07T01:08:50;-2.70;99.90
64226;DHT22;50545;56.064;26.178;2022-12-07T01:11:21;-2.70;99.90
64226;DHT22;50545;56.064;26.178;2022-12-07T01:13:50;-2.70;99.90
64226;DHT22;50545;56.064;26.178;2022-12-07T01:16:19;-2.70;99.90
64226;DHT22;50545;56.064;26.178;2022-12-07T01:18:49;-2.80;99.90
64226;DHT22;50545;56.064;26.178;2022-12-07T01:21:29;-2.80;99.90
64226;DHT22;50545;56.064;26.178;2022-12-07T01:23:59;-2.80;99.90
64226;DHT22;50545;56.064;26.178;2022-12-07T01:26:27;-2.80;99.90
64226;DHT22;50545;56.064;26.178;2022-12-07T01:28:54;-2.80;99.90
64226;DHT22;50545;56.064;26.178;2022-12-07T01:31:23;-2.80;99.90
64226;DHT22;50545;56.064;26.178;2022-12-07T01:33:54;-2.80;99.90
64226;DHT22;50545;56.064;26.178;2022-12-07T01:36:31;-2.80;99.90
64226;DHT22;50545;56.064;26.178;2022-12-07T01:39:00;-2.80;99.90
64226;DHT22;50545;56.064;26.178;2022-12-07T01:41:30;-2.80;99.90
64226;DHT22;50545;56.064;26.178;2022-12-07T01:47:02;-2.80;99.90
64226;DHT22;50545;56.064;26.178;2022-12-07T01:49:37;-2.80;99.90
64226;DHT22;50545;56.064;26.178;2022-12-07T01:52:26;-2.80;99.90
64226;DHT22;50545;56.064;26.178;2022-12-07T01:54:59;-2.80;99.90
64226;DHT22;50545;56.064;26.178;2022-12-07T01:57:30;-2.90;99.90
64226;DHT22;50545;56.064;26.178;2022-12-07T01:59:57;-2.90;99.90
64226;DHT22;50545;56.064;26.178;2022-12-07T02:03:09;-2.80;99.90
64226;DHT22;50545;56.064;26.178;2022-12-07T02:05:40;-2.80;99.90
64226;DHT22;50545;56.064;26.178;2022-12-07T02:08:09;-2.90;99.90
64226;DHT22;50545;56.064;26.178;2022-12-07T02:10:37;-2.90;99.90
64226;DHT22;50545;56.064;26.178;2022-12-07T02:13:09;-2.90;99.90
64226;DHT22;50545;56.064;26.178;2022-12-07T02:16:16;-2.90;99.90
64226;DHT22;50545;56.064;26.178;2022-12-07T02:21:46;-2.90;99.90
64226;DHT22;50545;56.064;26.178;2022-12-07T02:27:33;-2.90;99.90
64226;DHT22;50545;56.064;26.178;2022-12-07T02:32:58;-2.90;99.90
64226;DHT22;50545;56.064;26.178;2022-12-07T02:36:08;-2.90;99.90
64226;DHT22;50545;56.064;26.178;2022-12-07T02:39:17;-2.90;99.90
64226;DHT22;50545;56.064;26.178;2022-12-07T02:41:52;-2.90;99.90
64226;DHT22;50545;56.064;26.178;2022-12-07T02:44:25;-2.90;99.90
64226;DHT22;50545;56.064;26.178;2022-12-07T02:46:59;-2.90;99.90
64226;DHT22;50545;56.064;26.178;2022-12-07T02:49:28;-2.90;99.90
64226;DHT22;50545;56.064;26.178;2022-12-07T02:51:56;-2.90;99.90
64226;DHT22;50545;56.064;26.178;2022-12-07T02:54:23;-2.90;99.90
64226;DHT22;50545;56.064;26.178;2022-12-07T03:00:03;-2.90;99.90
64226;DHT22;50545;56.064;26.178;2022-12-07T03:16:18;-2.80;99.90
64226;DHT22;50545;56.064;26.178;2022-12-07T03:18:53;-2.80;99.90
64226;DHT22;50545;56.064;26.178;2022-12-07T03:21:26;-2.80;99.90
64226;DHT22;50545;56.064;26.178;2022-12-07T03:23:56;-2.80;99.90
64226;DHT22;50545;56.064;26.178;2022-12-07T03:26:31;-2.80;99.90
64226;DHT22;50545;56.064;26.178;2022-12-07T03:29:05;-2.80;99.90
64226;DHT22;50545;56.064;26.178;2022-12-07T03:31:41;-2.80;99.90
64226;DHT22;50545;56.064;26.178;2022-12-07T03:36:48;-2.80;99.90
64226;DHT22;50545;56.064;26.178;2022-12-07T03:42:11;-2.90;99.90
64226;DHT22;50545;56.064;26.178;2022-12-07T03:44:39;-2.90;99.90
64226;DHT22;50545;56.064;26.178;2022-12-07T03:47:22;-2.90;99.90
64226;DHT22;50545;56.064;26.178;2022-12-07T03:50:00;-2.90;99.90
64226;DHT22;50545;56.064;26.178;2022-12-07T03:52:46;-2.90;99.90
64226;DHT22;50545;56.064;26.178;2022-12-07T03:55:25;-2.90;99.90
64226;DHT22;50545;56.064;26.178;2022-12-07T03:57:59;-2.90;99.90
64226;DHT22;50545;56.064;26.178;2022-12-07T04:00:27;-2.90;99.90
64226;DHT22;50545;56.064;26.178;2022-12-07T04:02:55;-2.90;99.90
64226;DHT22;50545;56.064;26.178;2022-12-07T04:05:23;-2.90;99.90
64226;DHT22;50545;56.064;26.178;2022-12-07T04:07:50;-2.90;99.90
64226;DHT22;50545;56.064;26.178;2022-12-07T04:10:18;-2.90;99.90
64226;DHT22;50545;56.064;26.178;2022-12-07T04:12:45;-2.90;99.90
64226;DHT22;50545;56.064;26.178;2022-12-07T04:15:13;-2.90;99.90
64226;DHT22;50545;56.064;26.178;2022-12-07T04:17:40;-2.90;99.90
64226;DHT22;50545;56.064;26.178;2022-12-07T04:20:08;-2.90;99.90
64226;DHT22;50545;56.064;26.178;2022-12-07T04:22:35;-2.90;99.90
64226;DHT22;50545;56.064;26.178;2022-12-07T04:25:03;-2.90;99.90
64226;DHT22;50545;56.064;26.178;2022-12-07T04:27:31;-2.90;99.90
64226;DHT22;50545;56.064;26.178;2022-12-07T04:29:58;-2.90;99.90
64226;DHT22;50545;56.064;26.178;2022-12-07T04:32:26;-2.90;99.90
64226;DHT22;50545;56.064;26.178;2022-12-07T04:34:53;-2.90;99.90
64226;DHT22;50545;56.064;26.178;2022-12-07T04:37:22;-3.00;99.90
64226;DHT22;50545;56.064;26.178;2022-12-07T04:39:50;-3.00;99.90
64226;DHT22;50545;56.064;26.178;2022-12-07T04:42:17;-3.00;99.90
64226;DHT22;50545;56.064;26.178;2022-12-07T04:44:44;-3.00;99.90
64226;DHT22;50545;56.064;26.178;2022-12-07T04:47:12;-3.00;99.90
64226;DHT22;50545;56.064;26.178;2022-12-07T04:49:39;-3.00;99.90
64226;DHT22;50545;56.064;26.178;2022-12-07T04:52:06;-3.00;99.90
64226;DHT22;50545;56.064;26.178;2022-12-07T04:54:33;-3.00;99.90
64226;DHT22;50545;56.064;26.178;2022-12-07T04:57:00;-3.00;99.90
64226;DHT22;50545;56.064;26.178;2022-12-07T04:59:28;-3.10;99.90
64226;DHT22;50545;56.064;26.178;2022-12-07T05:01:55;-3.10;99.90
64226;DHT22;50545;56.064;26.178;2022-12-07T05:04:22;-3.10;99.90
64226;DHT22;50545;56.064;26.178;2022-12-07T05:06:49;-3.10;99.90
64226;DHT22;50545;56.064;26.178;2022-12-07T05:09:16;-3.10;99.90
64226;DHT22;50545;56.064;26.178;2022-12-07T05:11:43;-3.10;99.90
64226;DHT22;50545;56.064;26.178;2022-12-07T05:14:17;-3.10;99.90
64226;DHT22;50545;56.064;26.178;2022-12-07T05:16:46;-3.20;99.90
64226;DHT22;50545;56.064;26.178;2022-12-07T05:19:15;-3.20;99.90
64226;DHT22;50545;56.064;26.178;2022-12-07T05:21:42;-3.20;99.90
64226;DHT22;50545;56.064;26.178;2022-12-07T05:24:11;-3.20;99.90
64226;DHT22;50545;56.064;26.178;2022-12-07T05:26:38;-3.20;99.90
64226;DHT22;50545;56.064;26.178;2022-12-07T05:29:06;-3.20;99.90
64226;DHT22;50545;56.064;26.178;2022-12-07T05:31:33;-3.20;99.90
64226;DHT22;50545;56.064;26.178;2022-12-07T05:34:01;-3.20;99.90
64226;DHT22;50545;56.064;26.178;2022-12-07T05:36:28;-3.20;99.90
64226;DHT22;50545;56.064;26.178;2022-12-07T05:38:58;-3.20;99.90
64226;DHT22;50545;56.064;26.178;2022-12-07T05:41:27;-3.20;99.90
64226;DHT22;50545;56.064;26.178;2022-12-07T05:44:12;-3.20;99.90
64226;DHT22;50545;56.064;26.178;2022-12-07T05:46:40;-3.20;99.90
64226;DHT22;50545;56.064;26.178;2022-12-07T05:49:07;-3.20;99.90
64226;DHT22;50545;56.064;26.178;2022-12-07T05:51:34;-3.20;99.90
64226;DHT22;50545;56.064;26.178;2022-12-07T05:54:01;-3.20;99.90
64226;DHT22;50545;56.064;26.178;2022-12-07T05:56:28;-3.20;99.90
64226;DHT22;50545;56.064;26.178;2022-12-07T05:58:55;-3.20;99.90
64226;DHT22;50545;56.064;26.178;2022-12-07T06:01:41;-3.20;99.90
64226;DHT22;50545;56.064;26.178;2022-12-07T06:04:08;-3.30;99.90
64226;DHT22;50545;56.064;26.178;2022-12-07T06:06:36;-3.30;99.90
64226;DHT22;50545;56.064;26.178;2022-12-07T06:09:03;-3.30;99.90
64226;DHT22;50545;56.064;26.178;2022-12-07T06:11:30;-3.30;99.90
64226;DHT22;50545;56.064;26.178;2022-12-07T06:14:16;-3.30;99.90
64226;DHT22;50545;56.064;26.178;2022-12-07T06:16:43;-3.30;99.90
64226;DHT22;50545;56.064;26.178;2022-12-07T06:19:11;-3.30;99.90
64226;DHT22;50545;56.064;26.178;2022-12-07T06:21:38;-3.30;99.90
64226;DHT22;50545;56.064;26.178;2022-12-07T06:24:06;-3.30;99.90
64226;DHT22;50545;56.064;26.178;2022-12-07T06:26:33;-3.30;99.90
64226;DHT22;50545;56.064;26.178;2022-12-07T06:29:00;-3.30;99.90
64226;DHT22;50545;56.064;26.178;2022-12-07T06:31:27;-3.30;99.90
64226;DHT22;50545;56.064;26.178;2022-12-07T06:33:59;-3.40;99.90
64226;DHT22;50545;56.064;26.178;2022-12-07T06:36:26;-3.40;99.90
64226;DHT22;50545;56.064;26.178;2022-12-07T06:38:54;-3.40;99.90
64226;DHT22;50545;56.064;26.178;2022-12-07T06:41:22;-3.40;99.90
64226;DHT22;50545;56.064;26.178;2022-12-07T06:43:49;-3.40;99.90
64226;DHT22;50545;56.064;26.178;2022-12-07T06:46:22;-3.40;99.90
64226;DHT22;50545;56.064;26.178;2022-12-07T06:48:49;-3.40;99.90
64226;DHT22;50545;56.064;26.178;2022-12-07T06:51:17;-3.40;99.90
64226;DHT22;50545;56.064;26.178;2022-12-07T06:53:44;-3.40;99.90
64226;DHT22;50545;56.064;26.178;2022-12-07T06:56:11;-3.40;99.90
64226;DHT22;50545;56.064;26.178;2022-12-07T06:58:39;-3.40;99.90
64226;DHT22;50545;56.064;26.178;2022-12-07T07:01:11;-3.40;99.90
64226;DHT22;50545;56.064;26.178;2022-12-07T07:03:39;-3.40;99.90
64226;DHT22;50545;56.064;26.178;2022-12-07T07:06:07;-3.40;99.90
64226;DHT22;50545;56.064;26.178;2022-12-07T07:08:35;-3.40;99.90
64226;DHT22;50545;56.064;26.178;2022-12-07T07:11:04;-3.40;99.90
64226;DHT22;50545;56.064;26.178;2022-12-07T07:13:31;-3.50;99.90
64226;DHT22;50545;56.064;26.178;2022-12-07T07:15:59;-3.40;99.90
64226;DHT22;50545;56.064;26.178;2022-12-07T07:18:26;-3.50;99.90
64226;DHT22;50545;56.064;26.178;2022-12-07T07:20:54;-3.50;99.90
64226;DHT22;50545;56.064;26.178;2022-12-07T07:23:21;-3.50;99.90
64226;DHT22;50545;56.064;26.178;2022-12-07T07:25:48;-3.50;99.90
64226;DHT22;50545;56.064;26.178;2022-12-07T07:28:16;-3.50;99.90
64226;DHT22;50545;56.064;26.178;2022-12-07T07:30:43;-3.50;99.90
64226;DHT22;50545;56.064;26.178;2022-12-07T07:33:11;-3.50;99.90
64226;DHT22;50545;56.064;26.178;2022-12-07T07:35:39;-3.50;99.90
64226;DHT22;50545;56.064;26.178;2022-12-07T07:38:06;-3.50;99.90
64226;DHT22;50545;56.064;26.178;2022-12-07T07:40:35;-3.50;99.90
64226;DHT22;50545;56.064;26.178;2022-12-07T07:43:03;-3.50;99.90
64226;DHT22;50545;56.064;26.178;2022-12-07T07:45:30;-3.50;99.90
64226;DHT22;50545;56.064;26.178;2022-12-07T07:47:57;-3.40;99.90
64226;DHT22;50545;56.064;26.178;2022-12-07T07:50:24;-3.50;99.90
64226;DHT22;50545;56.064;26.178;2022-12-07T07:52:51;-3.40;99.90
64226;DHT22;50545;56.064;26.178;2022-12-07T07:55:19;-3.40;99.90
64226;DHT22;50545;56.064;26.178;2022-12-07T07:57:46;-3.40;99.90
64226;DHT22;50545;56.064;26.178;2022-12-07T08:00:21;-3.40;99.90
64226;DHT22;50545;56.064;26.178;2022-12-07T08:02:48;-3.30;99.90
64226;DHT22;50545;56.064;26.178;2022-12-07T08:05:15;-3.30;99.90
64226;DHT22;50545;56.064;26.178;2022-12-07T08:07:43;-3.30;99.90
64226;DHT22;50545;56.064;26.178;2022-12-07T08:10:12;-3.20;99.90
64226;DHT22;50545;56.064;26.178;2022-12-07T08:12:41;-3.20;99.90
64226;DHT22;50545;56.064;26.178;2022-12-07T08:15:28;-3.10;99.90
64226;DHT22;50545;56.064;26.178;2022-12-07T08:17:55;-3.10;99.90
64226;DHT22;50545;56.064;26.178;2022-12-07T08:20:23;-3.00;99.90
64226;DHT22;50545;56.064;26.178;2022-12-07T08:22:50;-3.00;99.90
64226;DHT22;50545;56.064;26.178;2022-12-07T08:25:18;-3.00;99.90
64226;DHT22;50545;56.064;26.178;2022-12-07T08:27:45;-3.00;99.90
64226;DHT22;50545;56.064;26.178;2022-12-07T08:30:13;-2.90;99.90
64226;DHT22;50545;56.064;26.178;2022-12-07T08:32:40;-2.80;99.90
64226;DHT22;50545;56.064;26.178;2022-12-07T08:35:08;-2.80;99.90
64226;DHT22;50545;56.064;26.178;2022-12-07T08:37:35;-2.80;99.90
64226;DHT22;50545;56.064;26.178;2022-12-07T08:40:05;-2.80;99.90
64226;DHT22;50545;56.064;26.178;2022-12-07T08:42:32;-2.80;99.90
64226;DHT22;50545;56.064;26.178;2022-12-07T08:45:09;-2.80;99.90
64226;DHT22;50545;56.064;26.178;2022-12-07T08:47:42;-2.80;99.90
64226;DHT22;50545;56.064;26.178;2022-12-07T08:50:11;-2.80;99.90
64226;DHT22;50545;56.064;26.178;2022-12-07T08:52:40;-2.80;99.90
64226;DHT22;50545;56.064;26.178;2022-12-07T08:55:10;-2.80;99.90
64226;DHT22;50545;56.064;26.178;2022-12-07T08:57:39;-2.80;99.90
64226;DHT22;50545;56.064;26.178;2022-12-07T09:00:08;-2.80;99.90
64226;DHT22;50545;56.064;26.178;2022-12-07T09:02:36;-2.70;99.90
64226;DHT22;50545;56.064;26.178;2022-12-07T09:05:03;-2.70;99.90
64226;DHT22;50545;56.064;26.178;2022-12-07T09:07:32;-2.70;99.90
64226;DHT22;50545;56.064;26.178;2022-12-07T09:10:01;-2.70;99.90
64226;DHT22;50545;56.064;26.178;2022-12-07T09:12:29;-2.70;99.90
64226;DHT22;50545;56.064;26.178;2022-12-07T09:14:56;-2.70;99.90
64226;DHT22;50545;56.064;26.178;2022-12-07T09:17:23;-2.70;99.90
64226;DHT22;50545;56.064;26.178;2022-12-07T09:19:51;-2.60;99.90
64226;DHT22;50545;56.064;26.178;2022-12-07T09:22:18;-2.60;99.90
64226;DHT22;50545;56.064;26.178;2022-12-07T09:24:45;-2.60;99.90
64226;DHT22;50545;56.064;26.178;2022-12-07T09:27:13;-2.70;99.90
64226;DHT22;50545;56.064;26.178;2022-12-07T09:29:40;-2.60;99.90
64226;DHT22;50545;56.064;26.178;2022-12-07T09:32:07;-2.60;99.90
64226;DHT22;50545;56.064;26.178;2022-12-07T09:34:37;-2.50;99.90
64226;DHT22;50545;56.064;26.178;2022-12-07T09:37:04;-2.50;99.90
64226;DHT22;50545;56.064;26.178;2022-12-07T09:39:33;-2.50;99.90
64226;DHT22;50545;56.064;26.178;2022-12-07T09:42:03;-2.60;99.90
64226;DHT22;50545;56.064;26.178;2022-12-07T09:44:31;-2.60;99.90
64226;DHT22;50545;56.064;26.178;2022-12-07T09:46:59;-2.60;99.90
64226;DHT22;50545;56.064;26.178;2022-12-07T09:49:30;-2.70;99.90
64226;DHT22;50545;56.064;26.178;2022-12-07T09:54:47;-2.70;99.90
64226;DHT22;50545;56.064;26.178;2022-12-07T09:57:15;-2.60;99.90
64226;DHT22;50545;56.064;26.178;2022-12-07T09:59:43;-2.60;99.90
64226;DHT22;50545;56.064;26.178;2022-12-07T10:02:31;-2.60;99.90
64226;DHT22;50545;56.064;26.178;2022-12-07T10:05:00;-2.50;99.90
64226;DHT22;50545;56.064;26.178;2022-12-07T10:07:29;-2.50;99.90
64226;DHT22;50545;56.064;26.178;2022-12-07T10:09:57;-2.50;99.90
64226;DHT22;50545;56.064;26.178;2022-12-07T10:12:24;-2.50;99.90
64226;DHT22;50545;56.064;26.178;2022-12-07T10:14:55;-2.50;99.90
64226;DHT22;50545;56.064;26.178;2022-12-07T10:17:48;-2.60;99.90
64226;DHT22;50545;56.064;26.178;2022-12-07T10:20:26;-2.60;99.90
64226;DHT22;50545;56.064;26.178;2022-12-07T10:23:01;-2.60;99.90
64226;DHT22;50545;56.064;26.178;2022-12-07T10:25:31;-2.60;99.90
64226;DHT22;50545;56.064;26.178;2022-12-07T10:28:15;-2.60;99.90
64226;DHT22;50545;56.064;26.178;2022-12-07T10:30:57;-2.60;99.90
64226;DHT22;50545;56.064;26.178;2022-12-07T10:33:53;-2.60;99.90
64226;DHT22;50545;56.064;26.178;2022-12-07T10:36:47;-2.50;99.90
64226;DHT22;50545;56.064;26.178;2022-12-07T10:39:17;-2.50;99.90
64226;DHT22;50545;56.064;26.178;2022-12-07T10:41:59;-2.50;99.90
64226;DHT22;50545;56.064;26.178;2022-12-07T10:44:35;-2.50;99.90
64226;DHT22;50545;56.064;26.178;2022-12-07T11:01:32;-2.50;99.90
64226;DHT22;50545;56.064;26.178;2022-12-07T11:04:21;-2.50;99.90
64226;DHT22;50545;56.064;26.178;2022-12-07T11:18:32;-2.40;99.90
64226;DHT22;50545;56.064;26.178;2022-12-07T11:21:09;-2.40;99.90
64226;DHT22;50545;56.064;26.178;2022-12-07T11:27:01;-2.50;99.90
64226;DHT22;50545;56.064;26.178;2022-12-07T11:37:59;-2.50;99.90
64226;DHT22;50545;56.064;26.178;2022-12-07T11:40:31;-2.50;99.90
64226;DHT22;50545;56.064;26.178;2022-12-07T11:43:30;-2.50;99.90
64226;DHT22;50545;56.064;26.178;2022-12-07T11:46:10;-2.40;99.90
64226;DHT22;50545;56.064;26.178;2022-12-07T11:48:47;-2.40;99.90
64226;DHT22;50545;56.064;26.178;2022-12-07T11:51:18;-2.50;99.90
64226;DHT22;50545;56.064;26.178;2022-12-07T11:53:58;-2.50;99.90
64226;DHT22;50545;56.064;26.178;2022-12-07T11:56:27;-2.50;99.90
64226;DHT22;50545;56.064;26.178;2022-12-07T11:59:00;-2.50;99.90
64226;DHT22;50545;56.064;26.178;2022-12-07T12:01:35;-2.50;99.90
64226;DHT22;50545;56.064;26.178;2022-12-07T12:06:37;-2.50;99.90
64226;DHT22;50545;56.064;26.178;2022-12-07T12:12:12;-2.60;99.90
64226;DHT22;50545;56.064;26.178;2022-12-07T12:22:58;-2.70;99.90
64226;DHT22;50545;56.064;26.178;2022-12-07T12:25:51;-2.80;99.90
64226;DHT22;50545;56.064;26.178;2022-12-07T12:31:33;-2.80;99.90
64226;DHT22;50545;56.064;26.178;2022-12-07T12:34:32;-2.90;99.90
64226;DHT22;50545;56.064;26.178;2022-12-07T12:37:00;-2.80;99.90
64226;DHT22;50545;56.064;26.178;2022-12-07T12:39:27;-2.80;99.90
64226;DHT22;50545;56.064;26.178;2022-12-07T12:41:56;-2.80;99.90
64226;DHT22;50545;56.064;26.178;2022-12-07T12:49:42;-2.90;99.90
64226;DHT22;50545;56.064;26.178;2022-12-07T12:55:13;-2.90;99.90
64226;DHT22;50545;56.064;26.178;2022-12-07T12:57:41;-2.90;99.90
64226;DHT22;50545;56.064;26.178;2022-12-07T13:00:22;-2.90;99.90
64226;DHT22;50545;56.064;26.178;2022-12-07T13:02:54;-2.90;99.90
64226;DHT22;50545;56.064;26.178;2022-12-07T13:05:25;-2.90;99.90
64226;DHT22;50545;56.064;26.178;2022-12-07T13:07:58;-2.90;99.90
64226;DHT22;50545;56.064;26.178;2022-12-07T13:18:14;-3.00;99.90
64226;DHT22;50545;56.064;26.178;2022-12-07T13:20:51;-3.00;99.90
64226;DHT22;50545;56.064;26.178;2022-12-07T13:29:16;-3.10;99.90
64226;DHT22;50545;56.064;26.178;2022-12-07T13:31:50;-3.10;99.90
64226;DHT22;50545;56.064;26.178;2022-12-07T13:34:41;-3.00;99.90
64226;DHT22;50545;56.064;26.178;2022-12-07T13:39:47;-3.10;99.90
64226;DHT22;50545;56.064;26.178;2022-12-07T13:44:46;-3.10;99.90
64226;DHT22;50545;56.064;26.178;2022-12-07T13:49:57;-3.10;99.90
64226;DHT22;50545;56.064;26.178;2022-12-07T13:52:26;-3.10;99.90
64226;DHT22;50545;56.064;26.178;2022-12-07T13:57:35;-3.00;99.90
64226;DHT22;50545;56.064;26.178;2022-12-07T14:00:06;-3.00;99.90
64226;DHT22;50545;56.064;26.178;2022-12-07T14:02:59;-3.10;99.90
64226;DHT22;50545;56.064;26.178;2022-12-07T14:05:29;-3.10;99.90
64226;DHT22;50545;56.064;26.178;2022-12-07T14:07:58;-3.10;99.90
64226;DHT22;50545;56.064;26.178;2022-12-07T14:13:31;-3.10;99.90
64226;DHT22;50545;56.064;26.178;2022-12-07T14:15:59;-3.10;99.90
64226;DHT22;50545;56.064;26.178;2022-12-07T14:18:40;-3.10;99.90
64226;DHT22;50545;56.064;26.178;2022-12-07T14:23:41;-3.10;99.90
64226;DHT22;50545;56.064;26.178;2022-12-07T14:28:41;-3.10;99.90
64226;DHT22;50545;56.064;26.178;2022-12-07T14:31:24;-3.10;99.90
64226;DHT22;50545;56.064;26.178;2022-12-07T14:34:01;-3.20;99.90
64226;DHT22;50545;56.064;26.178;2022-12-07T14:36:29;-3.20;99.90
64226;DHT22;50545;56.064;26.178;2022-12-07T14:38:56;-3.20;99.90
64226;DHT22;50545;56.064;26.178;2022-12-07T14:41:25;-3.20;99.90
64226;DHT22;50545;56.064;26.178;2022-12-07T14:44:13;-3.20;99.90
64226;DHT22;50545;56.064;26.178;2022-12-07T14:46:53;-3.20;99.90
64226;DHT22;50545;56.064;26.178;2022-12-07T14:49:40;-3.20;99.90
64226;DHT22;50545;56.064;26.178;2022-12-07T14:52:14;-3.20;99.90
64226;DHT22;50545;56.064;26.178;2022-12-07T14:55:02;-3.20;99.90
64226;DHT22;50545;56.064;26.178;2022-12-07T14:57:29;-3.20;99.90
64226;DHT22;50545;56.064;26.178;2022-12-07T14:59:57;-3.20;99.90
64226;DHT22;50545;56.064;26.178;2022-12-07T15:02:24;-3.20;99.90
64226;DHT22;50545;56.064;26.178;2022-12-07T15:04:51;-3.20;99.90
64226;DHT22;50545;56.064;26.178;2022-12-07T15:07:20;-3.20;99.90
64226;DHT22;50545;56.064;26.178;2022-12-07T15:09:48;-3.20;99.90
64226;DHT22;50545;56.064;26.178;2022-12-07T15:12:15;-3.30;99.90
64226;DHT22;50545;56.064;26.178;2022-12-07T15:14:42;-3.30;99.90
64226;DHT22;50545;56.064;26.178;2022-12-07T15:17:11;-3.30;99.90
64226;DHT22;50545;56.064;26.178;2022-12-07T15:19:52;-3.30;99.90
64226;DHT22;50545;56.064;26.178;2022-12-07T15:22:19;-3.30;99.90
64226;DHT22;50545;56.064;26.178;2022-12-07T15:24:46;-3.30;99.90
64226;DHT22;50545;56.064;26.178;2022-12-07T15:27:13;-3.30;99.90
64226;DHT22;50545;56.064;26.178;2022-12-07T15:29:41;-3.30;99.90
64226;DHT22;50545;56.064;26.178;2022-12-07T15:32:08;-3.30;99.90
64226;DHT22;50545;56.064;26.178;2022-12-07T15:34:35;-3.40;99.90
64226;DHT22;50545;56.064;26.178;2022-12-07T15:37:07;-3.40;99.90
64226;DHT22;50545;56.064;26.178;2022-12-07T15:39:36;-3.40;99.90
64226;DHT22;50545;56.064;26.178;2022-12-07T15:42:04;-3.40;99.90
64226;DHT22;50545;56.064;26.178;2022-12-07T15:44:31;-3.40;99.90
64226;DHT22;50545;56.064;26.178;2022-12-07T15:47:16;-3.40;99.90
64226;DHT22;50545;56.064;26.178;2022-12-07T15:49:44;-3.50;99.90
64226;DHT22;50545;56.064;26.178;2022-12-07T15:52:11;-3.50;99.90
64226;DHT22;50545;56.064;26.178;2022-12-07T15:54:38;-3.50;99.90
64226;DHT22;50545;56.064;26.178;2022-12-07T15:57:06;-3.50;99.90
64226;DHT22;50545;56.064;26.178;2022-12-07T15:59:33;-3.50;99.90
64226;DHT22;50545;56.064;26.178;2022-12-07T16:02:00;-3.50;99.90
64226;DHT22;50545;56.064;26.178;2022-12-07T16:04:28;-3.50;99.90
64226;DHT22;50545;56.064;26.178;2022-12-07T16:06:58;-3.60;99.90
64226;DHT22;50545;56.064;26.178;2022-12-07T16:09:25;-3.60;99.90
64226;DHT22;50545;56.064;26.178;2022-12-07T16:11:53;-3.60;99.90
64226;DHT22;50545;56.064;26.178;2022-12-07T16:14:21;-3.50;99.90
64226;DHT22;50545;56.064;26.178;2022-12-07T16:16:48;-3.60;99.90
64226;DHT22;50545;56.064;26.178;2022-12-07T16:19:16;-3.50;99.90
64226;DHT22;50545;56.064;26.178;2022-12-07T16:21:43;-3.60;99.90
64226;DHT22;50545;56.064;26.178;2022-12-07T16:24:10;-3.50;99.90
64226;DHT22;50545;56.064;26.178;2022-12-07T16:26:39;-3.60;99.90
64226;DHT22;50545;56.064;26.178;2022-12-07T16:29:14;-3.50;99.90
64226;DHT22;50545;56.064;26.178;2022-12-07T16:31:41;-3.50;99.90
64226;DHT22;50545;56.064;26.178;2022-12-07T16:34:09;-3.50;99.90
64226;DHT22;50545;56.064;26.178;2022-12-07T16:36:36;-3.50;99.90
64226;DHT22;50545;56.064;26.178;2022-12-07T16:39:23;-3.50;99.90
64226;DHT22;50545;56.064;26.178;2022-12-07T16:41:51;-3.60;99.90
64226;DHT22;50545;56.064;26.178;2022-12-07T16:44:19;-3.60;99.90
64226;DHT22;50545;56.064;26.178;2022-12-07T16:46:47;-3.60;99.90
64226;DHT22;50545;56.064;26.178;2022-12-07T16:49:14;-3.50;99.90
64226;DHT22;50545;56.064;26.178;2022-12-07T16:51:42;-3.60;99.90
64226;DHT22;50545;56.064;26.178;2022-12-07T16:54:11;-3.50;99.90
64226;DHT22;50545;56.064;26.178;2022-12-07T16:56:39;-3.50;99.90
64226;DHT22;50545;56.064;26.178;2022-12-07T16:59:07;-3.50;99.90
64226;DHT22;50545;56.064;26.178;2022-12-07T17:01:34;-3.50;99.90
64226;DHT22;50545;56.064;26.178;2022-12-07T17:04:03;-3.50;99.90
64226;DHT22;50545;56.064;26.178;2022-12-07T17:06:31;-3.50;99.90
64226;DHT22;50545;56.064;26.178;2022-12-07T17:08:59;-3.50;99.90
64226;DHT22;50545;56.064;26.178;2022-12-07T17:11:28;-3.50;99.90
64226;DHT22;50545;56.064;26.178;2022-12-07T17:13:57;-3.50;99.90
64226;DHT22;50545;56.064;26.178;2022-12-07T17:16:43;-3.50;99.90
64226;DHT22;50545;56.064;26.178;2022-12-07T17:19:13;-3.50;99.90
64226;DHT22;50545;56.064;26.178;2022-12-07T17:21:42;-3.50;99.90
64226;DHT22;50545;56.064;26.178;2022-12-07T17:24:11;-3.50;99.90
64226;DHT22;50545;56.064;26.178;2022-12-07T17:26:38;-3.50;99.90
64226;DHT22;50545;56.064;26.178;2022-12-07T17:29:07;-3.40;99.90
64226;DHT22;50545;56.064;26.178;2022-12-07T17:31:35;-3.40;99.90
64226;DHT22;50545;56.064;26.178;2022-12-07T17:34:03;-3.40;99.90
64226;DHT22;50545;56.064;26.178;2022-12-07T17:36:31;-3.40;99.90
64226;DHT22;50545;56.064;26.178;2022-12-07T17:38:58;-3.40;99.90
64226;DHT22;50545;56.064;26.178;2022-12-07T17:41:29;-3.40;99.90
64226;DHT22;50545;56.064;26.178;2022-12-07T17:44:18;-3.40;99.90
64226;DHT22;50545;56.064;26.178;2022-12-07T17:46:49;-3.30;99.90
64226;DHT22;50545;56.064;26.178;2022-12-07T17:49:21;-3.30;99.90
64226;DHT22;50545;56.064;26.178;2022-12-07T17:51:48;-3.30;99.90